McLeod, Texas
Current Conditions -  °F | °C
As of 11:55 AM on Friday 21 Nov 2014 (Local Time) from KASL Reporting Station
Overcast Overcast  
Wind Chill: 58°   Ceiling: 700
Heat Index: 58°   Visibility: 10mi
Dew Point: 56°   Wind: 3mph
Humidity: 91%   Direction: 210°SSW
Pressure: 30.21"   Gusts: NA
Location:  32.94°N, 94.08°W
Report Text: KASL 211755Z AUTO 21003KT 10SM OVC007 15/13 A3021 RMK AO1 P0001 60018 T01460131 10146 20090
Loading
Personal Weather Stations






























Interactive Weather Map New forecast layout! Learn more

10-Day Weather Forecast

Advertisements
Track Severe Weather on mobile